createdAt,value
2023-03-22T00:00:31.062Z,3.60
2023-03-22T00:02:59.042Z,3.25
2023-03-22T00:05:27.244Z,3.00
2023-03-22T00:07:58.063Z,3.20
2023-03-22T00:10:27.590Z,3.13
2023-03-22T00:12:55.785Z,3.47
2023-03-22T00:15:24.194Z,3.47
2023-03-22T00:17:53.801Z,3.05
2023-03-22T00:20:23.554Z,3.80
2023-03-22T00:22:51.735Z,3.38
2023-03-22T00:25:20.190Z,3.38
2023-03-22T00:27:48.262Z,3.83
2023-03-22T00:30:16.691Z,3.40
2023-03-22T00:32:44.593Z,3.30
2023-03-22T00:35:14.143Z,3.15
2023-03-22T00:37:42.609Z,3.28
2023-03-22T00:40:13.460Z,3.97
2023-03-22T00:42:42.650Z,3.60
2023-03-22T00:45:13.224Z,3.72
2023-03-22T00:47:41.514Z,3.45
2023-03-22T00:50:11.088Z,3.60
2023-03-22T00:52:40.376Z,3.70
2023-03-22T00:55:08.875Z,3.47
2023-03-22T00:57:37.747Z,3.78
2023-03-22T01:00:15.985Z,3.65
2023-03-22T01:02:44.404Z,3.55
2023-03-22T01:05:18.315Z,3.58
2023-03-22T01:07:50.703Z,3.35
2023-03-22T01:10:19.574Z,3.60
2023-03-22T01:12:47.487Z,3.25
2023-03-22T01:15:15.734Z,3.35
2023-03-22T01:17:43.646Z,3.40
2023-03-22T01:20:13.000Z,3.88
2023-03-22T01:22:43.327Z,3.90
2023-03-22T01:25:12.702Z,3.80
2023-03-22T01:27:40.644Z,3.45
2023-03-22T01:30:09.965Z,3.33
2023-03-22T01:32:38.479Z,3.83
2023-03-22T01:35:07.465Z,3.60
2023-03-22T01:37:38.018Z,3.83
2023-03-22T01:40:07.540Z,3.65
2023-03-22T01:42:36.939Z,3.30
2023-03-22T01:45:37.413Z,3.60
2023-03-22T01:48:17.677Z,4.07
2023-03-22T01:50:50.632Z,3.78
2023-03-22T01:53:23.590Z,3.40
2023-03-22T01:55:52.929Z,3.67
2023-03-22T01:58:22.324Z,3.80
2023-03-22T02:00:51.656Z,4.30
2023-03-22T02:03:24.701Z,3.67
2023-03-22T02:05:53.760Z,3.97
2023-03-22T02:08:21.748Z,3.85
2023-03-22T02:10:49.736Z,4.00
2023-03-22T02:13:31.369Z,4.30
2023-03-22T02:16:12.225Z,3.65
2023-03-22T02:19:02.172Z,3.47
2023-03-22T02:21:55.545Z,3.97
2023-03-22T02:25:04.986Z,4.45
2023-03-22T02:27:50.693Z,3.88
2023-03-22T02:30:38.876Z,3.67
2023-03-22T02:33:31.127Z,3.83
2023-03-22T02:36:19.742Z,4.32
2023-03-22T02:39:13.677Z,3.67
2023-03-22T02:41:55.142Z,4.20
2023-03-22T02:44:28.156Z,4.10
2023-03-22T02:47:02.590Z,3.67
2023-03-22T02:49:37.325Z,3.95
2023-03-22T02:52:12.358Z,4.10
2023-03-22T02:54:48.315Z,3.95
2023-03-22T02:57:23.614Z,4.38
2023-03-22T02:59:52.732Z,3.90
2023-03-22T03:02:22.781Z,4.30
2023-03-22T03:04:52.985Z,3.63
2023-03-22T03:07:25.610Z,3.83
2023-03-22T03:09:55.495Z,4.28
2023-03-22T03:12:26.237Z,3.38
2023-03-22T03:14:54.381Z,4.15
2023-03-22T03:17:31.653Z,3.63
2023-03-22T03:20:14.108Z,4.05
2023-03-22T03:22:53.629Z,3.90
2023-03-22T03:25:31.286Z,4.18
2023-03-22T03:28:05.534Z,3.63
2023-03-22T03:30:39.073Z,3.92
2023-03-22T03:33:10.674Z,4.03
2023-03-22T03:35:42.393Z,3.85
2023-03-22T03:38:14.719Z,4.50
2023-03-22T03:40:48.543Z,3.67
2023-03-22T03:43:17.557Z,3.72
2023-03-22T03:45:48.981Z,4.13
2023-03-22T03:48:21.182Z,3.47
2023-03-22T03:50:51.347Z,4.00
2023-03-22T03:53:19.372Z,3.85
2023-03-22T03:55:48.937Z,3.90
2023-03-22T03:58:17.238Z,4.07
2023-03-22T04:00:46.608Z,3.75
2023-03-22T04:03:15.341Z,4.07
2023-03-22T04:05:43.529Z,3.58
2023-03-22T04:08:11.498Z,3.83
2023-03-22T04:10:40.097Z,3.75
2023-03-22T04:13:10.206Z,4.05
2023-03-22T04:15:38.581Z,4.57
2023-03-22T04:18:07.202Z,5.30
2023-03-22T04:20:35.155Z,4.78
2023-03-22T04:23:03.249Z,5.68
2023-03-22T04:25:33.862Z,4.85
2023-03-22T04:28:04.321Z,5.28
2023-03-22T04:30:36.461Z,4.75
2023-03-22T04:33:07.000Z,3.95
2023-03-22T04:35:35.608Z,5.50
2023-03-22T04:38:03.727Z,5.13
2023-03-22T04:40:36.568Z,4.40
2023-03-22T04:43:05.079Z,5.50
2023-03-22T04:45:35.850Z,4.68
2023-03-22T04:48:03.836Z,5.78
2023-03-22T04:50:31.792Z,4.72
2023-03-22T04:52:59.809Z,4.70
2023-03-22T04:55:27.746Z,4.80
2023-03-22T04:57:55.928Z,4.75
2023-03-22T05:00:24.387Z,4.97
2023-03-22T05:02:53.925Z,5.22
2023-03-22T05:05:22.089Z,4.30
2023-03-22T05:07:49.994Z,5.20
2023-03-22T05:10:19.980Z,4.60
2023-03-22T05:12:47.837Z,4.60
2023-03-22T05:15:15.934Z,4.88
2023-03-22T05:17:43.755Z,4.75
2023-03-22T05:20:13.708Z,4.82
2023-03-22T05:22:41.529Z,4.75
2023-03-22T05:25:11.656Z,4.68
2023-03-22T05:27:39.551Z,5.07
2023-03-22T05:30:09.806Z,4.68
2023-03-22T05:32:37.636Z,4.82
2023-03-22T05:35:06.417Z,4.40
2023-03-22T05:37:36.868Z,4.28
2023-03-22T05:40:09.631Z,4.70
2023-03-22T05:42:37.623Z,4.20
2023-03-22T05:45:06.305Z,4.80
2023-03-22T05:47:34.239Z,4.20
2023-03-22T05:50:08.533Z,4.22
2023-03-22T05:52:40.154Z,4.57
2023-03-22T05:55:12.458Z,4.72
2023-03-22T05:57:40.805Z,4.50
2023-03-22T06:00:13.396Z,4.40
2023-03-22T06:02:41.347Z,4.30
2023-03-22T06:05:10.973Z,3.83
2023-03-22T06:07:41.201Z,3.78
2023-03-22T06:10:11.917Z,4.05
2023-03-22T06:12:40.985Z,3.85
2023-03-22T06:15:10.524Z,3.78
2023-03-22T06:17:38.524Z,4.30
2023-03-22T06:20:12.146Z,3.78
2023-03-22T06:22:41.717Z,3.88
2023-03-22T06:25:12.056Z,4.10
2023-03-22T06:27:40.306Z,4.00
2023-03-22T06:30:12.416Z,4.57
2023-03-22T06:32:40.842Z,4.28
2023-03-22T06:37:36.689Z,4.30
2023-03-22T06:40:07.139Z,4.18
2023-03-22T06:42:35.664Z,4.57
2023-03-22T06:45:03.942Z,4.55
2023-03-22T06:47:32.054Z,3.75
2023-03-22T06:49:59.972Z,4.10
2023-03-22T06:52:27.969Z,3.80
2023-03-22T06:54:56.807Z,4.47
2023-03-22T06:57:26.436Z,4.35
2023-03-22T06:59:54.629Z,4.25
2023-03-22T07:02:22.457Z,4.60
2023-03-22T07:04:50.568Z,4.40
2023-03-22T07:07:18.972Z,4.32
2023-03-22T07:09:47.396Z,4.55
2023-03-22T07:12:16.011Z,4.72
2023-03-22T07:14:48.649Z,4.65
2023-03-22T07:17:16.572Z,4.50
2023-03-22T07:19:55.413Z,4.30
2023-03-22T07:22:24.860Z,4.88
2023-03-22T07:24:57.610Z,4.90
2023-03-22T07:27:26.929Z,4.55
2023-03-22T07:30:03.470Z,5.00
2023-03-22T07:32:32.047Z,4.70
2023-03-22T07:35:01.492Z,4.90
2023-03-22T07:37:40.079Z,5.35
2023-03-22T07:40:11.657Z,5.32
2023-03-22T07:42:43.488Z,5.30
2023-03-22T07:45:29.546Z,4.88
2023-03-22T07:48:13.496Z,5.00
2023-03-22T07:53:34.065Z,5.35
2023-03-22T07:56:13.009Z,5.65
2023-03-22T07:58:46.050Z,4.82
2023-03-22T08:01:21.621Z,5.50
2023-03-22T08:03:50.250Z,5.40
2023-03-22T08:06:44.964Z,4.90
2023-03-22T08:09:29.202Z,4.90
2023-03-22T08:12:47.923Z,5.45
2023-03-22T08:15:43.288Z,5.20
2023-03-22T08:19:17.042Z,5.07
2023-03-22T08:21:58.097Z,5.13
2023-03-22T08:24:36.829Z,5.38
2023-03-22T08:27:52.869Z,4.68
2023-03-22T08:30:33.786Z,5.72
2023-03-22T08:33:36.293Z,5.72
2023-03-22T08:40:17.080Z,5.57
2023-03-22T08:43:51.346Z,5.85
2023-03-22T09:11:30.874Z,5.28
2023-03-22T09:22:36.532Z,5.05
2023-03-22T09:41:03.176Z,4.60
2023-03-22T09:44:37.200Z,4.80
2023-03-22T09:51:13.809Z,4.50
2023-03-22T09:58:28.696Z,4.70
2023-03-22T10:01:53.281Z,4.72
2023-03-22T10:05:30.759Z,4.78
2023-03-22T10:11:58.514Z,5.15
2023-03-22T10:14:57.133Z,5.10
2023-03-22T10:23:12.004Z,4.72
2023-03-22T10:25:38.812Z,5.10
2023-03-22T10:32:28.846Z,4.57
2023-03-22T10:39:20.587Z,4.65
2023-03-22T10:42:35.737Z,5.30
2023-03-22T10:46:00.090Z,5.05
2023-03-22T10:48:57.020Z,4.72
2023-03-22T10:51:58.141Z,4.90
2023-03-22T10:54:46.842Z,4.88
2023-03-22T10:57:58.318Z,4.95
2023-03-22T11:01:01.585Z,4.43
2023-03-22T11:10:48.753Z,4.00
2023-03-22T11:13:55.576Z,4.80
2023-03-22T11:16:55.649Z,4.20
2023-03-22T11:23:07.113Z,4.43
2023-03-22T11:26:14.300Z,4.13
2023-03-22T11:29:25.993Z,4.05
2023-03-22T11:32:59.304Z,4.15
2023-03-22T11:36:01.569Z,3.92
2023-03-22T11:38:45.584Z,4.00
2023-03-22T11:42:03.167Z,3.72
2023-03-22T12:03:18.900Z,3.58
2023-03-22T12:06:24.833Z,3.63
2023-03-22T12:09:38.060Z,3.75
2023-03-22T12:12:45.588Z,3.05
2023-03-22T12:19:38.087Z,3.50
2023-03-22T12:23:05.510Z,3.42
2023-03-22T12:30:20.569Z,3.45
2023-03-22T12:34:30.979Z,2.90
2023-03-22T12:40:26.814Z,3.13
2023-03-22T12:44:00.289Z,3.28
2023-03-22T12:46:57.749Z,3.22
2023-03-22T12:50:09.223Z,3.47
2023-03-22T12:57:02.473Z,3.42
2023-03-22T13:03:53.000Z,3.05
2023-03-22T13:07:20.051Z,3.35
2023-03-22T13:27:06.246Z,3.63
2023-03-22T13:30:51.112Z,3.60
2023-03-22T13:34:44.475Z,3.35
2023-03-22T13:37:26.899Z,3.47
2023-03-22T13:40:35.693Z,3.38
2023-03-22T13:43:56.903Z,3.03
2023-03-22T13:47:01.648Z,3.38
2023-03-22T13:49:52.892Z,3.20
2023-03-22T13:53:02.080Z,3.45
2023-03-22T13:56:01.592Z,3.88
2023-03-22T13:59:01.105Z,3.05
2023-03-22T14:02:12.725Z,2.95
2023-03-22T14:05:26.118Z,3.20
2023-03-22T14:19:12.498Z,3.15
